createdAt,value
2017-10-07T00:00:14.650Z,11.50
2017-10-07T00:02:42.479Z,11.40
2017-10-07T00:05:08.708Z,11.50
2017-10-07T00:07:34.975Z,11.50
2017-10-07T00:10:01.227Z,11.50
2017-10-07T00:12:27.479Z,11.50
2017-10-07T00:14:53.644Z,11.50
2017-10-07T00:17:20.620Z,11.50
2017-10-07T00:19:46.829Z,11.50
2017-10-07T00:22:13.840Z,11.50
2017-10-07T00:24:40.059Z,11.50
2017-10-07T00:27:06.735Z,11.50
2017-10-07T00:29:33.695Z,11.50
2017-10-07T00:32:00.656Z,11.40
2017-10-07T00:34:26.856Z,11.40
2017-10-07T00:36:53.811Z,11.40
2017-10-07T00:39:20.775Z,11.40
2017-10-07T00:41:47.006Z,11.40
2017-10-07T00:44:13.265Z,11.30
2017-10-07T00:46:39.494Z,11.30
2017-10-07T00:49:05.691Z,11.60
2017-10-07T00:51:31.928Z,11.20
2017-10-07T00:53:58.235Z,11.30
2017-10-07T00:56:25.223Z,11.20
2017-10-07T00:58:51.464Z,11.20
2017-10-07T01:01:17.772Z,11.50
2017-10-07T01:03:44.007Z,11.20
2017-10-07T01:06:10.288Z,11.10
2017-10-07T01:08:37.222Z,11.10
2017-10-07T01:11:05.835Z,11.10
2017-10-07T01:13:32.087Z,11.10
2017-10-07T01:15:58.587Z,11.10
2017-10-07T01:18:24.866Z,11.20
2017-10-07T01:20:51.108Z,11.20
2017-10-07T01:23:17.330Z,11.10
2017-10-07T01:25:43.613Z,11.10
2017-10-07T01:28:10.644Z,11.10
2017-10-07T01:30:37.708Z,11.10
2017-10-07T01:33:04.700Z,11.10
2017-10-07T01:35:31.018Z,11.10
2017-10-07T01:37:57.244Z,11.10
2017-10-07T01:40:23.454Z,11.10
2017-10-07T01:42:50.378Z,11.20
2017-10-07T01:45:17.334Z,11.20
2017-10-07T01:47:44.364Z,11.10
2017-10-07T01:50:10.558Z,11.20
2017-10-07T01:52:36.846Z,11.20
2017-10-07T01:55:03.801Z,11.10
2017-10-07T01:57:30.040Z,11.10
2017-10-07T01:59:56.241Z,11.10
2017-10-07T02:02:23.233Z,11.10
2017-10-07T02:04:50.695Z,11.10
2017-10-07T02:07:16.965Z,11.10
2017-10-07T02:09:43.174Z,11.10
2017-10-07T02:12:09.424Z,11.10
2017-10-07T02:14:35.653Z,11.10
2017-10-07T02:17:01.878Z,11.10
2017-10-07T02:19:28.121Z,11.10
2017-10-07T02:21:55.112Z,11.00
2017-10-07T02:24:21.285Z,11.10
2017-10-07T02:26:48.231Z,11.10
2017-10-07T02:29:15.174Z,11.00
2017-10-07T02:31:41.380Z,11.10
2017-10-07T02:34:08.309Z,11.00
2017-10-07T02:36:34.513Z,11.00
2017-10-07T02:39:00.758Z,11.00
2017-10-07T02:41:26.995Z,10.90
2017-10-07T02:43:53.232Z,11.10
2017-10-07T02:46:19.425Z,11.40
2017-10-07T02:48:45.631Z,11.00
2017-10-07T02:51:12.568Z,11.10
2017-10-07T02:53:38.812Z,11.10
2017-10-07T02:56:05.754Z,11.10
2017-10-07T02:58:32.691Z,11.10
2017-10-07T03:00:58.895Z,11.10
2017-10-07T03:03:25.079Z,11.10
2017-10-07T03:05:51.328Z,11.10
2017-10-07T03:08:17.533Z,11.10
2017-10-07T03:10:44.490Z,11.00
2017-10-07T03:13:10.713Z,11.60
2017-10-07T03:15:36.920Z,11.00
2017-10-07T03:18:03.926Z,11.00
2017-10-07T03:20:30.093Z,11.00
2017-10-07T03:22:57.043Z,10.90
2017-10-07T03:25:24.090Z,10.90
2017-10-07T03:27:51.086Z,10.90
2017-10-07T03:30:17.308Z,11.20
2017-10-07T03:32:43.530Z,10.90
2017-10-07T03:35:09.763Z,10.90
2017-10-07T03:37:36.014Z,10.90
2017-10-07T03:40:02.235Z,11.00
2017-10-07T03:45:17.683Z,10.90
2017-10-07T03:47:44.655Z,10.80
2017-10-07T03:50:10.896Z,10.80
2017-10-07T03:52:37.100Z,10.90
2017-10-07T03:55:03.305Z,10.90
2017-10-07T03:57:30.255Z,10.90
2017-10-07T03:59:57.178Z,10.80
2017-10-07T04:02:23.402Z,10.80
2017-10-07T04:04:49.669Z,10.80
2017-10-07T04:07:16.635Z,10.70
2017-10-07T04:09:43.513Z,10.60
2017-10-07T04:12:09.744Z,10.60
2017-10-07T04:14:35.960Z,10.50
2017-10-07T04:17:02.246Z,10.70
2017-10-07T04:19:29.950Z,10.70
2017-10-07T04:21:56.166Z,10.70
2017-10-07T04:24:22.354Z,10.80
2017-10-07T04:26:48.531Z,10.70
2017-10-07T04:29:14.764Z,10.70
2017-10-07T04:31:40.984Z,10.70
2017-10-07T04:34:07.207Z,10.70
2017-10-07T04:36:33.471Z,10.70
2017-10-07T04:38:59.704Z,10.80
2017-10-07T04:41:25.964Z,10.80
2017-10-07T04:43:52.933Z,10.70
2017-10-07T04:46:19.204Z,10.70
2017-10-07T04:48:45.474Z,10.80
2017-10-07T04:51:12.473Z,10.80
2017-10-07T04:53:38.683Z,10.80
2017-10-07T04:56:04.925Z,10.80
2017-10-07T04:58:31.182Z,10.70
2017-10-07T05:00:59.143Z,10.70
2017-10-07T05:03:25.370Z,10.70
2017-10-07T05:05:51.618Z,10.70
2017-10-07T05:08:17.842Z,10.70
2017-10-07T05:10:44.803Z,10.70
2017-10-07T05:13:11.813Z,10.60
2017-10-07T05:15:38.090Z,10.70
2017-10-07T05:18:05.541Z,10.60
2017-10-07T05:30:17.552Z,10.40
2017-10-07T05:32:43.807Z,10.40
2017-10-07T05:35:10.765Z,10.40
2017-10-07T05:37:38.346Z,10.40
2017-10-07T05:40:05.308Z,10.40
2017-10-07T05:42:31.590Z,10.40
2017-10-07T05:44:58.183Z,10.40
2017-10-07T05:47:24.464Z,10.40
2017-10-07T05:49:50.680Z,10.30
2017-10-07T05:52:16.932Z,10.20
2017-10-07T05:54:43.210Z,10.30
2017-10-07T05:57:09.470Z,10.40
2017-10-07T05:59:35.733Z,10.50
2017-10-07T06:02:01.884Z,10.50
2017-10-07T06:04:28.905Z,10.50
2017-10-07T06:06:56.006Z,10.50
2017-10-07T06:09:23.083Z,10.50
2017-10-07T06:11:49.563Z,10.80
2017-10-07T06:14:15.799Z,10.50
2017-10-07T06:16:42.023Z,10.50
2017-10-07T06:19:08.263Z,10.50
2017-10-07T06:21:34.890Z,10.70
2017-10-07T06:24:01.119Z,10.60
2017-10-07T06:26:27.344Z,10.60
2017-10-07T06:28:53.627Z,10.60
2017-10-07T06:31:20.907Z,10.60
2017-10-07T06:33:47.121Z,10.60
2017-10-07T06:36:13.652Z,10.60
2017-10-07T06:38:39.835Z,10.60
2017-10-07T06:41:06.087Z,10.70
2017-10-07T06:43:32.338Z,10.60
2017-10-07T06:45:58.593Z,10.70
2017-10-07T06:48:26.734Z,10.80
2017-10-07T06:50:52.987Z,10.60
2017-10-07T06:53:19.190Z,10.90
2017-10-07T06:55:45.466Z,11.00
2017-10-07T06:58:12.478Z,11.10
2017-10-07T07:00:38.678Z,11.00
2017-10-07T07:03:04.876Z,11.50
2017-10-07T07:05:31.825Z,11.50
2017-10-07T07:07:58.055Z,11.60
2017-10-07T07:10:24.387Z,11.60
2017-10-07T07:12:50.578Z,11.50
2017-10-07T07:15:17.542Z,11.40
2017-10-07T07:17:46.786Z,11.30
2017-10-07T07:20:13.010Z,11.40
2017-10-07T07:22:39.265Z,11.80
2017-10-07T07:25:05.452Z,12.50
2017-10-07T07:27:32.809Z,13.40
2017-10-07T07:29:59.007Z,13.40
2017-10-07T07:32:26.182Z,15.50
2017-10-07T07:34:52.560Z,16.30
2017-10-07T07:37:19.749Z,16.00
2017-10-07T07:39:46.866Z,15.00
2017-10-07T07:42:13.074Z,15.00
2017-10-07T07:44:39.321Z,14.10
2017-10-07T07:47:05.617Z,13.50
2017-10-07T07:49:31.906Z,12.60
2017-10-07T07:51:58.828Z,12.40
2017-10-07T07:54:25.074Z,12.30
2017-10-07T07:56:52.178Z,12.20
2017-10-07T07:59:18.390Z,12.20
2017-10-07T08:01:45.175Z,12.10
2017-10-07T08:04:11.461Z,12.10
2017-10-07T08:09:07.197Z,12.00
2017-10-07T08:11:33.433Z,12.00
2017-10-07T08:13:59.654Z,12.00
2017-10-07T08:16:26.698Z,12.00
2017-10-07T08:18:53.694Z,12.10
2017-10-07T08:21:20.797Z,12.00
2017-10-07T08:23:50.822Z,12.30
2017-10-07T08:26:17.152Z,12.30
2017-10-07T08:28:44.299Z,12.40
2017-10-07T08:31:11.577Z,12.40
2017-10-07T08:33:37.972Z,12.60
2017-10-07T08:36:05.728Z,12.70
2017-10-07T08:38:33.602Z,12.80
2017-10-07T09:24:42.257Z,16.10
2017-10-07T09:27:08.874Z,15.90
2017-10-07T09:29:35.832Z,15.60
2017-10-07T09:32:02.641Z,15.20
2017-10-07T09:34:28.889Z,15.00
2017-10-07T09:36:56.194Z,14.50
2017-10-07T09:39:23.249Z,14.40
2017-10-07T09:41:50.542Z,14.10
2017-10-07T09:44:18.311Z,14.00
2017-10-07T09:46:45.763Z,13.70
2017-10-07T09:49:12.867Z,13.50
2017-10-07T09:51:39.137Z,13.40
2017-10-07T09:54:05.989Z,13.30
2017-10-07T09:56:33.121Z,13.10
2017-10-07T09:59:00.461Z,12.90
2017-10-07T10:01:26.704Z,13.00
2017-10-07T10:03:52.960Z,13.00
2017-10-07T10:06:21.789Z,13.20
2017-10-07T10:08:49.603Z,13.20
2017-10-07T10:11:16.616Z,13.30
2017-10-07T10:13:42.897Z,13.70
2017-10-07T10:16:09.951Z,14.20
2017-10-07T10:18:36.864Z,14.50
2017-10-07T10:21:03.325Z,14.60
2017-10-07T10:23:30.366Z,14.40
2017-10-07T10:25:56.728Z,14.30
2017-10-07T10:28:23.212Z,13.90
2017-10-07T10:30:49.796Z,13.80
2017-10-07T10:33:16.982Z,13.60
2017-10-07T10:35:43.255Z,13.70
2017-10-07T10:38:10.370Z,13.70
2017-10-07T10:40:37.139Z,13.80
2017-10-07T10:52:53.374Z,14.10
2017-10-07T10:55:19.561Z,14.70
2017-10-07T10:57:47.641Z,14.70
2017-10-07T11:00:13.975Z,14.80
2017-10-07T11:02:42.255Z,14.70
2017-10-07T11:05:08.522Z,14.80
2017-10-07T11:07:34.741Z,15.10
2017-10-07T11:10:01.043Z,15.20
2017-10-07T11:12:27.432Z,15.30
2017-10-07T11:14:53.970Z,15.40
2017-10-07T11:17:20.957Z,15.40
2017-10-07T11:19:47.474Z,15.60
2017-10-07T11:22:13.751Z,16.30
2017-10-07T11:24:40.082Z,15.90
2017-10-07T11:27:06.339Z,16.10
2017-10-07T11:29:32.845Z,16.00
2017-10-07T11:31:59.062Z,16.10
2017-10-07T11:34:26.083Z,16.20
2017-10-07T11:36:55.278Z,16.10
2017-10-07T11:39:21.519Z,15.70
2017-10-07T11:41:47.782Z,15.30
2017-10-07T11:44:14.000Z,15.10
2017-10-07T11:46:40.192Z,14.90
2017-10-07T11:49:06.446Z,14.60
2017-10-07T11:51:32.653Z,14.60
2017-10-07T11:53:58.866Z,14.50
2017-10-07T11:56:26.200Z,14.40
2017-10-07T11:58:52.393Z,14.40
2017-10-07T12:01:18.896Z,14.30
2017-10-07T12:03:45.088Z,14.10
2017-10-07T12:06:11.336Z,13.80
2017-10-07T12:08:38.322Z,13.80
2017-10-07T12:11:04.628Z,13.70
2017-10-07T12:13:32.591Z,13.70
2017-10-07T12:15:59.273Z,13.70
2017-10-07T12:18:25.511Z,13.70
2017-10-07T12:20:51.775Z,13.70
2017-10-07T12:23:18.979Z,13.70
2017-10-07T12:25:45.202Z,13.70
2017-10-07T12:28:11.516Z,13.70
2017-10-07T12:30:37.756Z,13.80
2017-10-07T12:33:05.142Z,13.70
2017-10-07T12:35:31.419Z,13.70
2017-10-07T12:38:03.026Z,13.70
2017-10-07T12:40:32.254Z,13.80
2017-10-07T12:43:01.097Z,13.80
2017-10-07T12:45:28.061Z,13.90
2017-10-07T12:47:54.295Z,13.80
2017-10-07T12:50:24.270Z,13.90
2017-10-07T12:52:51.837Z,13.90
2017-10-07T12:55:18.580Z,13.90
2017-10-07T12:57:44.838Z,14.10
2017-10-07T13:00:11.871Z,14.20
2017-10-07T13:02:39.208Z,14.00
2017-10-07T13:05:05.422Z,14.00
2017-10-07T13:07:33.203Z,13.70
2017-10-07T13:09:59.822Z,13.70
2017-10-07T13:12:26.781Z,13.70
2017-10-07T13:14:52.974Z,13.70
2017-10-07T13:17:19.201Z,13.70
2017-10-07T13:19:46.886Z,13.70
2017-10-07T13:22:13.853Z,13.60
2017-10-07T13:24:40.055Z,13.50
2017-10-07T13:27:07.031Z,13.50
2017-10-07T13:29:33.304Z,13.50
2017-10-07T13:32:00.459Z,13.60
2017-10-07T13:34:26.806Z,13.60
2017-10-07T13:46:43.014Z,13.60
2017-10-07T13:49:09.245Z,13.50
2017-10-07T13:51:35.541Z,13.50
2017-10-07T13:54:02.537Z,13.40
2017-10-07T13:56:28.782Z,13.40
2017-10-07T13:58:55.010Z,13.20
2017-10-07T14:01:21.266Z,13.20
2017-10-07T14:03:48.251Z,13.10
2017-10-07T14:06:14.924Z,13.00
2017-10-07T14:08:41.880Z,13.00
2017-10-07T14:11:09.261Z,13.00
2017-10-07T14:13:36.283Z,13.00
2017-10-07T14:16:03.250Z,12.90
2017-10-07T14:18:30.719Z,12.90
2017-10-07T14:20:57.767Z,13.00
2017-10-07T14:23:24.568Z,13.00
2017-10-07T14:25:52.687Z,13.00
2017-10-07T14:28:20.230Z,12.90
2017-10-07T14:30:47.924Z,12.90
2017-10-07T14:33:14.412Z,12.90
2017-10-07T14:35:40.822Z,12.80
2017-10-07T14:38:08.023Z,12.80
2017-10-07T14:40:35.180Z,12.80
2017-10-07T14:43:02.614Z,12.80
2017-10-07T14:45:29.389Z,12.80
2017-10-07T14:47:57.240Z,12.80
2017-10-07T14:50:24.208Z,12.80
2017-10-07T14:52:50.436Z,12.80
2017-10-07T14:55:16.656Z,12.70
2017-10-07T14:57:44.184Z,12.60
2017-10-07T15:00:12.090Z,12.50
2017-10-07T15:02:39.771Z,12.50
2017-10-07T15:05:05.981Z,12.50
2017-10-07T15:07:32.676Z,12.40
2017-10-07T15:09:59.683Z,12.40
2017-10-07T15:12:25.945Z,12.40
2017-10-07T15:14:52.215Z,12.40
2017-10-07T15:17:19.776Z,12.40
2017-10-07T15:19:45.997Z,12.40
2017-10-07T15:22:12.964Z,12.30
2017-10-07T15:24:39.537Z,12.30
2017-10-07T15:27:06.234Z,12.30
2017-10-07T15:29:32.449Z,12.20
2017-10-07T15:31:59.443Z,12.20
2017-10-07T15:34:25.943Z,12.20
2017-10-07T15:36:52.486Z,12.20
2017-10-07T15:39:20.435Z,12.20
2017-10-07T15:41:46.765Z,12.20
2017-10-07T15:44:13.827Z,12.30
2017-10-07T15:46:41.778Z,12.20
2017-10-07T15:49:08.007Z,12.20
2017-10-07T15:51:35.127Z,12.20
2017-10-07T15:54:01.370Z,12.20
2017-10-07T15:56:27.650Z,12.10
2017-10-07T15:58:53.903Z,12.20
2017-10-07T16:01:20.174Z,12.00
2017-10-07T16:03:47.907Z,12.10
2017-10-07T16:06:14.144Z,12.10
2017-10-07T16:08:40.394Z,12.10
2017-10-07T16:11:07.584Z,12.10
2017-10-07T16:13:33.823Z,12.10
2017-10-07T16:16:00.052Z,12.20
2017-10-07T16:18:26.657Z,12.20
2017-10-07T16:20:53.602Z,12.20
2017-10-07T16:23:20.582Z,12.20
2017-10-07T16:25:46.819Z,12.60
2017-10-07T16:28:13.043Z,12.20
2017-10-07T16:30:40.026Z,12.20
2017-10-07T16:33:07.050Z,12.20
2017-10-07T16:35:33.294Z,12.20
2017-10-07T16:37:59.518Z,12.20
2017-10-07T16:40:26.585Z,12.20
2017-10-07T16:42:52.893Z,12.20
2017-10-07T16:45:19.133Z,12.10
2017-10-07T16:47:45.374Z,12.20
2017-10-07T16:50:11.614Z,12.20
2017-10-07T16:52:37.860Z,12.20
2017-10-07T16:55:04.826Z,12.10
2017-10-07T16:57:31.556Z,12.10
2017-10-07T16:59:58.581Z,12.10
2017-10-07T17:02:24.838Z,12.00
2017-10-07T17:04:51.823Z,12.00
2017-10-07T17:07:18.110Z,12.00
2017-10-07T17:09:45.103Z,12.00
2017-10-07T17:12:11.369Z,11.90
2017-10-07T17:14:38.395Z,12.00
2017-10-07T17:17:04.631Z,12.00
2017-10-07T17:19:30.873Z,12.50
2017-10-07T17:21:57.883Z,12.00
2017-10-07T17:24:24.089Z,12.00
2017-10-07T17:26:50.332Z,12.00
2017-10-07T17:29:17.315Z,12.00
2017-10-07T17:31:43.961Z,12.00
2017-10-07T17:34:10.217Z,12.00
2017-10-07T17:36:37.155Z,12.00
2017-10-07T17:39:04.130Z,11.90
2017-10-07T17:41:30.362Z,11.90
2017-10-07T17:43:56.602Z,12.00
2017-10-07T17:46:23.036Z,12.00
2017-10-07T17:48:49.273Z,11.90
2017-10-07T17:51:15.468Z,12.00
2017-10-07T17:53:41.694Z,12.00
2017-10-07T17:56:07.987Z,12.00
2017-10-07T17:58:34.269Z,12.00
2017-10-07T18:01:00.485Z,12.00
2017-10-07T18:03:26.716Z,11.90
2017-10-07T18:05:52.923Z,12.00
2017-10-07T18:08:19.883Z,12.10
2017-10-07T18:10:46.842Z,12.00
2017-10-07T18:13:13.040Z,12.10
2017-10-07T18:15:39.618Z,12.00
2017-10-07T18:18:06.144Z,12.10
2017-10-07T18:20:32.399Z,12.10
2017-10-07T18:22:58.596Z,12.00
2017-10-07T18:25:24.834Z,12.00
2017-10-07T18:27:51.959Z,12.00
2017-10-07T18:30:18.964Z,12.00
2017-10-07T18:32:45.243Z,12.00
2017-10-07T18:35:11.482Z,12.00
2017-10-07T18:37:37.754Z,12.00
2017-10-07T18:40:04.050Z,11.90
2017-10-07T18:42:30.276Z,11.90
2017-10-07T18:44:56.483Z,12.00
2017-10-07T18:47:23.512Z,11.90
2017-10-07T18:49:51.313Z,11.90
2017-10-07T18:52:17.614Z,11.90
2017-10-07T18:54:44.669Z,11.90
2017-10-07T18:57:11.002Z,11.90
2017-10-07T18:59:38.126Z,11.90
2017-10-07T19:02:04.326Z,11.80
2017-10-07T19:04:33.775Z,11.80
2017-10-07T19:07:00.124Z,11.80
2017-10-07T19:09:27.123Z,11.80
2017-10-07T19:11:53.364Z,11.80
2017-10-07T19:14:21.647Z,11.80
2017-10-07T19:16:47.919Z,11.80
2017-10-07T19:19:14.722Z,11.80
2017-10-07T19:21:41.725Z,12.40
2017-10-07T19:24:08.213Z,11.80
2017-10-07T19:26:35.243Z,11.70
2017-10-07T19:29:02.085Z,11.80
2017-10-07T19:31:28.519Z,11.80
2017-10-07T19:33:56.638Z,11.80
2017-10-07T19:36:24.620Z,11.80
2017-10-07T19:38:54.162Z,11.70
2017-10-07T19:41:22.352Z,11.70
2017-10-07T19:46:26.966Z,11.70
2017-10-07T19:48:55.615Z,11.70
2017-10-07T19:54:15.002Z,11.70
2017-10-07T19:56:47.040Z,11.70
2017-10-07T19:59:32.503Z,11.70
2017-10-07T20:01:58.942Z,11.70
2017-10-07T20:04:28.504Z,11.70
2017-10-07T20:06:55.561Z,11.80
2017-10-07T20:09:25.044Z,11.70
2017-10-07T20:11:52.572Z,11.70
2017-10-07T20:14:18.828Z,11.70
2017-10-07T20:16:45.931Z,11.70
2017-10-07T20:19:12.727Z,11.70
2017-10-07T20:21:39.030Z,11.70
2017-10-07T20:24:05.283Z,11.60
2017-10-07T20:26:36.672Z,11.70
2017-10-07T20:29:03.161Z,11.60
2017-10-07T20:31:30.205Z,11.60
2017-10-07T20:33:57.376Z,11.60
2017-10-07T20:36:23.635Z,11.60
2017-10-07T20:38:49.924Z,11.50
2017-10-07T20:41:17.255Z,11.50
2017-10-07T20:43:44.135Z,11.40
2017-10-07T20:46:11.489Z,11.30
2017-10-07T20:48:44.782Z,11.30
2017-10-07T20:51:12.130Z,11.30
2017-10-07T21:06:43.284Z,11.10
2017-10-07T21:09:09.523Z,11.20
2017-10-07T21:11:35.983Z,11.20
2017-10-07T21:14:03.221Z,11.20
2017-10-07T21:16:29.473Z,11.20
2017-10-07T21:18:55.723Z,11.20
2017-10-07T21:21:22.292Z,11.20
2017-10-07T21:23:49.829Z,11.20
2017-10-07T21:26:20.395Z,11.20
2017-10-07T21:28:48.354Z,11.30
2017-10-07T21:31:14.693Z,11.30
2017-10-07T21:33:40.920Z,11.30
2017-10-07T21:36:07.896Z,11.20
2017-10-07T21:38:34.184Z,11.20
2017-10-07T21:41:00.423Z,11.30
2017-10-07T21:43:26.713Z,11.30
2017-10-07T21:45:53.058Z,11.30
2017-10-07T21:48:20.443Z,11.30
2017-10-07T21:50:46.699Z,11.30
2017-10-07T21:53:14.217Z,11.40
2017-10-07T21:55:40.472Z,11.30
2017-10-07T21:58:07.646Z,11.30
2017-10-07T22:00:33.863Z,11.30
2017-10-07T22:03:00.205Z,11.20
2017-10-07T22:05:28.571Z,11.30
2017-10-07T22:07:54.856Z,11.30
2017-10-07T22:10:21.275Z,11.30
2017-10-07T22:12:48.413Z,11.30
2017-10-07T22:15:14.769Z,11.20
2017-10-07T22:17:42.425Z,11.30
2017-10-07T22:20:08.664Z,11.30
2017-10-07T22:22:35.715Z,11.30
2017-10-07T22:25:02.804Z,11.20
2017-10-07T22:27:29.070Z,11.20
2017-10-07T22:29:55.738Z,11.30
2017-10-07T22:32:22.674Z,11.30
2017-10-07T22:34:49.836Z,11.30
2017-10-07T22:37:16.923Z,11.30
2017-10-07T22:39:43.150Z,11.30
2017-10-07T22:42:09.409Z,11.20
2017-10-07T22:44:36.363Z,11.30
2017-10-07T22:47:02.628Z,11.30
2017-10-07T22:49:29.704Z,11.30
2017-10-07T22:51:57.145Z,11.30
2017-10-07T22:54:23.393Z,11.30
2017-10-07T22:56:49.614Z,11.30
2017-10-07T22:59:16.742Z,11.20
2017-10-07T23:01:44.373Z,11.30
2017-10-07T23:04:11.438Z,11.30
2017-10-07T23:16:27.713Z,11.30
2017-10-07T23:18:55.166Z,11.30
2017-10-07T23:21:21.531Z,11.30
2017-10-07T23:23:47.781Z,11.30
2017-10-07T23:26:14.012Z,11.20
2017-10-07T23:28:40.234Z,11.20
2017-10-07T23:31:07.390Z,11.20
2017-10-07T23:33:33.595Z,11.30
2017-10-07T23:35:59.887Z,11.20
2017-10-07T23:38:26.891Z,11.20
2017-10-07T23:40:53.107Z,11.20
2017-10-07T23:43:19.343Z,11.20
2017-10-07T23:45:45.986Z,11.20
2017-10-07T23:48:12.677Z,11.20
2017-10-07T23:50:39.660Z,11.20
2017-10-07T23:53:07.443Z,11.10
2017-10-07T23:55:33.693Z,11.20
2017-10-07T23:57:59.958Z,11.20
